Time;durP1;ratioP1;P1;durP2;ratioP2;P2;SDS_P1;SDS_P2;PMS_P1;PMS_P2;Temp;Humidity;BMP_temperature;BMP_pressure;BME280_temperature;BME280_humidity;BME280_pressure;Samples;Min_cycle;Max_cycle;Signal;HPM_P1;HPM_P2
2023/05/10 00:03:28;;;;;;;0.50;0.50;;;;;;;;;;8153940;28;20408;-72
2023/05/10 00:07:29;;;;;;;1.80;0.55;;;;;;;;;;8157555;28;20138;-72
2023/05/10 00:11:29;;;;;;;2.20;0.60;;;;;;;;;;8157620;28;20661;-72
2023/05/10 00:15:32;;;;;;;0.40;0.40;;;;;;;;;;8153810;28;20432;-72
2023/05/10 00:19:32;;;;;;;0.95;0.50;;;;;;;;;;8151308;28;20023;-72
2023/05/10 00:23:33;;;;;;;3.20;0.50;;;;;;;;;;8152684;28;20034;-72
2023/05/10 00:27:33;;;;;;;2.25;0.50;;;;;;;;;;8158415;28;20046;-72
2023/05/10 00:31:33;;;;;;;0.40;0.40;;;;;;;;;;8160873;28;20668;-72
2023/05/10 00:35:33;;;;;;;1.45;0.50;;;;;;;;;;8155158;28;20055;-71
2023/05/10 00:39:34;;;;;;;0.82;0.45;;;;;;;;;;8156633;28;20097;-72
2023/05/10 00:43:34;;;;;;;1.27;0.50;;;;;;;;;;8150092;28;20536;-72
2023/05/10 00:47:34;;;;;;;1.10;0.50;;;;;;;;;;8179883;28;20050;-72
2023/05/10 00:51:35;;;;;;;1.88;0.60;;;;;;;;;;8196449;28;20026;-72
2023/05/10 00:55:35;;;;;;;0.45;0.45;;;;;;;;;;8203664;28;20122;-72
2023/05/10 00:59:35;;;;;;;1.27;0.40;;;;;;;;;;8197193;28;20385;-72
2023/05/10 01:03:35;;;;;;;0.50;0.50;;;;;;;;;;8187277;28;21102;-72
2023/05/10 01:07:35;;;;;;;0.63;0.60;;;;;;;;;;8189179;28;20441;-72
2023/05/10 01:11:37;;;;;;;0.57;0.57;;;;;;;;;;8190164;28;20852;-72
2023/05/10 01:15:38;;;;;;;0.50;0.50;;;;;;;;;;8189857;28;20132;-72
2023/05/10 01:19:38;;;;;;;0.40;0.40;;;;;;;;;;8187053;28;20042;-72
2023/05/10 01:23:45;;;;;;;0.57;0.57;;;;;;;;;;8188178;28;20880;-72
2023/05/10 01:27:48;;;;;;;0.50;0.50;;;;;;;;;;8187445;28;20161;-73
2023/05/10 01:32:07;;;;;;;1.93;0.60;;;;;;;;;;8173031;28;20039;-72
2023/05/10 01:36:07;;;;;;;1.60;0.50;;;;;;;;;;8159104;28;20278;-72
2023/05/10 01:40:07;;;;;;;1.00;0.70;;;;;;;;;;8161361;28;20042;-72
2023/05/10 01:44:07;;;;;;;0.60;0.60;;;;;;;;;;8158475;28;20685;-72
2023/05/10 01:48:09;;;;;;;0.50;0.50;;;;;;;;;;8165605;28;20784;-72
2023/05/10 01:52:11;;;;;;;0.77;0.77;;;;;;;;;;8166740;28;20076;-72
2023/05/10 01:56:12;;;;;;;3.53;0.80;;;;;;;;;;8158828;28;20031;-72
2023/05/10 02:00:13;;;;;;;2.83;0.70;;;;;;;;;;8162264;28;20027;-72
2023/05/10 02:04:15;;;;;;;0.98;0.98;;;;;;;;;;8158705;28;20138;-72
2023/05/10 02:08:17;;;;;;;2.08;0.80;;;;;;;;;;8156153;29;20508;-72
2023/05/10 02:12:17;;;;;;;1.17;0.98;;;;;;;;;;8155631;28;20032;-72
2023/05/10 02:16:19;;;;;;;1.20;1.10;;;;;;;;;;8168689;28;20130;-72
2023/05/10 02:20:20;;;;;;;1.48;1.13;;;;;;;;;;8162590;28;20122;-72
2023/05/10 02:24:21;;;;;;;1.20;1.10;;;;;;;;;;8167411;29;20035;-71
2023/05/10 02:28:23;;;;;;;2.58;1.20;;;;;;;;;;8163710;29;20034;-72
2023/05/10 02:32:24;;;;;;;2.55;1.20;;;;;;;;;;8157781;28;20218;-71
2023/05/10 02:36:27;;;;;;;2.78;1.38;;;;;;;;;;8161922;29;20023;-72
2023/05/10 02:40:28;;;;;;;1.88;1.42;;;;;;;;;;8170566;28;20037;-72
2023/05/10 02:44:30;;;;;;;2.30;1.30;;;;;;;;;;8154184;29;20119;-72
2023/05/10 02:48:31;;;;;;;1.60;1.50;;;;;;;;;;8158066;28;20799;-72
2023/05/10 02:52:36;;;;;;;1.90;1.70;;;;;;;;;;8155325;29;20440;-72
2023/05/10 02:56:40;;;;;;;1.30;1.20;;;;;;;;;;8152558;28;20346;-72
2023/05/10 03:00:40;;;;;;;4.38;1.55;;;;;;;;;;8153188;28;20050;-72
2023/05/10 03:04:40;;;;;;;2.20;1.10;;;;;;;;;;8155806;28;20035;-71
2023/05/10 03:08:40;;;;;;;2.35;1.30;;;;;;;;;;8155839;29;20456;-72
2023/05/10 03:12:56;;;;;;;2.65;1.02;;;;;;;;;;8151386;28;20027;-72
2023/05/10 03:17:00;;;;;;;1.13;1.02;;;;;;;;;;8159796;28;20031;-72
2023/05/10 03:21:05;;;;;;;1.65;1.35;;;;;;;;;;8158468;29;20037;-72
2023/05/10 03:25:06;;;;;;;3.25;1.23;;;;;;;;;;8154720;29;20557;-72
2023/05/10 03:29:07;;;;;;;3.53;1.35;;;;;;;;;;8153040;29;20050;-72
2023/05/10 03:33:07;;;;;;;3.25;1.17;;;;;;;;;;8159659;28;20116;-72
2023/05/10 03:37:07;;;;;;;3.20;1.20;;;;;;;;;;8159684;28;20035;-72
2023/05/10 03:41:08;;;;;;;4.60;1.40;;;;;;;;;;8150893;28;20487;-72
2023/05/10 03:45:08;;;;;;;4.25;1.55;;;;;;;;;;8152349;28;20042;-72
2023/05/10 03:49:08;;;;;;;3.13;1.40;;;;;;;;;;8151341;28;20037;-72
2023/05/10 03:53:09;;;;;;;2.53;1.50;;;;;;;;;;8157134;29;20038;-72
2023/05/10 03:57:09;;;;;;;2.17;1.70;;;;;;;;;;8153976;28;20038;-72
2023/05/10 04:01:10;;;;;;;3.20;1.80;;;;;;;;;;8151834;28;20063;-72
2023/05/10 04:05:10;;;;;;;3.50;1.60;;;;;;;;;;8152388;28;20825;-72
2023/05/10 04:09:11;;;;;;;2.47;2.10;;;;;;;;;;8170182;28;20069;-72
2023/05/10 04:13:11;;;;;;;6.15;2.35;;;;;;;;;;8151555;29;20283;-72
2023/05/10 04:17:11;;;;;;;2.90;2.22;;;;;;;;;;8153477;28;20109;-72
2023/05/10 04:21:14;;;;;;;3.35;2.40;;;;;;;;;;8153703;28;20023;-73
2023/05/10 04:25:14;;;;;;;5.40;2.38;;;;;;;;;;8149007;28;20138;-72
2023/05/10 04:29:14;;;;;;;3.08;2.50;;;;;;;;;;8153482;28;20117;-72
2023/05/10 04:33:15;;;;;;;4.57;2.30;;;;;;;;;;8156796;28;20098;-72
2023/05/10 04:37:15;;;;;;;3.45;2.40;;;;;;;;;;8158011;28;20031;-72
2023/05/10 04:41:15;;;;;;;4.75;2.40;;;;;;;;;;8163870;28;20031;-72
2023/05/10 04:45:16;;;;;;;5.53;2.60;;;;;;;;;;8152407;28;20079;-72
2023/05/10 04:49:17;;;;;;;3.75;2.67;;;;;;;;;;8154558;28;20796;-72
2023/05/10 04:53:17;;;;;;;5.70;2.92;;;;;;;;;;8146165;28;21013;-72
2023/05/10 04:57:18;;;;;;;7.30;3.60;;;;;;;;;;8153478;28;20114;-72
2023/05/10 05:01:18;;;;;;;8.80;4.10;;;;;;;;;;8147004;28;20031;-71
2023/05/10 05:05:18;;;;;;;9.95;3.45;;;;;;;;;;8148673;28;20219;-72
2023/05/10 05:09:18;;;;;;;5.50;2.92;;;;;;;;;;8145463;28;20024;-72
2023/05/10 05:13:18;;;;;;;6.03;3.25;;;;;;;;;;8149784;28;20022;-72
2023/05/10 05:17:19;;;;;;;7.07;3.42;;;;;;;;;;8165240;28;20784;-72
2023/05/10 05:21:19;;;;;;;7.53;4.07;;;;;;;;;;8208521;28;20210;-72
2023/05/10 05:25:19;;;;;;;4.80;3.13;;;;;;;;;;8183996;28;20409;-72
2023/05/10 05:29:20;;;;;;;5.95;3.40;;;;;;;;;;8180199;28;20042;-72
2023/05/10 05:33:20;;;;;;;4.78;3.70;;;;;;;;;;8163235;28;20035;-72
2023/05/10 05:37:21;;;;;;;6.13;3.70;;;;;;;;;;8153867;28;20063;-72
2023/05/10 05:41:21;;;;;;;5.18;3.25;;;;;;;;;;8156891;28;20125;-72
2023/05/10 05:45:21;;;;;;;7.43;3.30;;;;;;;;;;8158695;28;20558;-72
2023/05/10 05:49:21;;;;;;;4.00;3.10;;;;;;;;;;8155479;28;20310;-72
2023/05/10 05:53:22;;;;;;;4.13;2.75;;;;;;;;;;8167059;28;20461;-72
2023/05/10 05:57:22;;;;;;;3.10;2.65;;;;;;;;;;8170349;28;20734;-72
2023/05/10 06:01:22;;;;;;;6.85;2.60;;;;;;;;;;8166396;28;20103;-72
2023/05/10 06:05:23;;;;;;;5.85;2.40;;;;;;;;;;8158607;28;20019;-73
2023/05/10 06:09:24;;;;;;;2.42;2.22;;;;;;;;;;8158216;28;20078;-73
2023/05/10 06:13:24;;;;;;;2.42;2.22;;;;;;;;;;8167397;28;20038;-73
2023/05/10 06:17:24;;;;;;;2.97;1.83;;;;;;;;;;8156324;28;20989;-73
2023/05/10 06:21:25;;;;;;;3.22;2.13;;;;;;;;;;8157633;28;21072;-73
2023/05/10 06:25:25;;;;;;;3.15;2.00;;;;;;;;;;8153643;28;20087;-73
2023/05/10 06:29:25;;;;;;;5.43;1.70;;;;;;;;;;8159324;28;20110;-73
2023/05/10 06:33:26;;;;;;;5.45;1.67;;;;;;;;;;8151797;28;20133;-73
2023/05/10 06:37:26;;;;;;;5.80;1.55;;;;;;;;;;8157862;28;20432;-72
2023/05/10 06:41:26;;;;;;;2.90;1.30;;;;;;;;;;8155439;28;20550;-73
2023/05/10 06:45:26;;;;;;;1.73;1.20;;;;;;;;;;8158514;28;20038;-73
2023/05/10 06:49:26;;;;;;;2.67;1.15;;;;;;;;;;8153927;28;20050;-73
2023/05/10 06:53:27;;;;;;;1.15;1.08;;;;;;;;;;8187059;28;20082;-74
2023/05/10 06:57:27;;;;;;;1.67;0.97;;;;;;;;;;8188805;28;20026;-73
2023/05/10 07:01:29;;;;;;;0.80;0.80;;;;;;;;;;8176019;28;20060;-73
2023/05/10 07:05:30;;;;;;;1.35;1.00;;;;;;;;;;8154819;28;20030;-73
2023/05/10 07:09:30;;;;;;;2.10;1.03;;;;;;;;;;8147124;28;20455;-73
2023/05/10 07:13:31;;;;;;;1.10;1.00;;;;;;;;;;8175889;28;20682;-73
2023/05/10 07:17:33;;;;;;;1.42;1.05;;;;;;;;;;8161770;28;20043;-73
2023/05/10 07:21:33;;;;;;;2.05;0.90;;;;;;;;;;8165138;28;20477;-73
2023/05/10 07:25:33;;;;;;;2.17;0.75;;;;;;;;;;8156530;28;20447;-73
2023/05/10 07:29:33;;;;;;;1.25;0.90;;;;;;;;;;8155760;28;20042;-73
2023/05/10 07:33:34;;;;;;;1.43;0.80;;;;;;;;;;8171033;28;20122;-73
2023/05/10 07:37:34;;;;;;;2.65;0.88;;;;;;;;;;8155118;29;20050;-72
2023/05/10 07:41:35;;;;;;;1.30;0.70;;;;;;;;;;8158911;28;20019;-73
2023/05/10 07:45:35;;;;;;;5.83;0.80;;;;;;;;;;8154551;28;20035;-73
2023/05/10 07:49:35;;;;;;;3.55;0.90;;;;;;;;;;8162059;28;20030;-73
2023/05/10 07:53:36;;;;;;;0.80;0.70;;;;;;;;;;8150602;29;20023;-73
2023/05/10 07:57:36;;;;;;;2.13;0.80;;;;;;;;;;8154195;28;20636;-73
2023/05/10 08:01:36;;;;;;;3.70;0.82;;;;;;;;;;8152849;28;20035;-73
2023/05/10 08:05:36;;;;;;;2.03;0.90;;;;;;;;;;8155749;28;20049;-73
2023/05/10 08:09:36;;;;;;;3.03;0.88;;;;;;;;;;8154659;28;20020;-73
2023/05/10 08:13:37;;;;;;;0.60;0.60;;;;;;;;;;8160390;28;20510;-73
2023/05/10 08:17:37;;;;;;;0.82;0.80;;;;;;;;;;8150588;28;20027;-73
2023/05/10 08:21:37;;;;;;;2.83;0.77;;;;;;;;;;8149136;29;20011;-73
2023/05/10 08:25:37;;;;;;;1.48;0.85;;;;;;;;;;8150360;29;20025;-73
2023/05/10 08:29:37;;;;;;;2.30;0.90;;;;;;;;;;8151476;29;20150;-73
2023/05/10 08:33:38;;;;;;;3.03;0.80;;;;;;;;;;8178908;28;20039;-73
2023/05/10 08:37:38;;;;;;;0.80;0.77;;;;;;;;;;8183569;28;20026;-73
2023/05/10 08:41:38;;;;;;;1.45;0.80;;;;;;;;;;8182768;28;20051;-73
2023/05/10 08:45:40;;;;;;;1.90;0.90;;;;;;;;;;8176833;28;20035;-73
2023/05/10 08:49:41;;;;;;;2.92;0.70;;;;;;;;;;8149168;29;20058;-73
2023/05/10 08:53:41;;;;;;;1.02;0.77;;;;;;;;;;8150853;29;20027;-73
2023/05/10 08:57:42;;;;;;;1.55;0.93;;;;;;;;;;8148165;28;20027;-73
2023/05/10 09:01:44;;;;;;;0.75;0.75;;;;;;;;;;8164079;28;20039;-73
2023/05/10 09:05:45;;;;;;;0.80;0.80;;;;;;;;;;8149917;28;20016;-73
2023/05/10 09:09:45;;;;;;;2.45;0.80;;;;;;;;;;8149913;28;20038;-73
2023/05/10 09:13:47;;;;;;;3.28;0.90;;;;;;;;;;8154491;28;20034;-73
2023/05/10 09:17:48;;;;;;;5.25;0.90;;;;;;;;;;8153246;28;20042;-73
2023/05/10 09:21:49;;;;;;;4.70;1.00;;;;;;;;;;8144347;28;20331;-74
2023/05/10 09:26:02;;;;;;;3.72;1.00;;;;;;;;;;8176593;28;20523;-73
2023/05/10 09:30:03;;;;;;;2.53;0.90;;;;;;;;;;8185650;28;20029;-73
2023/05/10 09:34:03;;;;;;;2.35;0.77;;;;;;;;;;8187630;28;20039;-73
2023/05/10 09:38:04;;;;;;;1.88;0.77;;;;;;;;;;8191807;28;20039;-73
2023/05/10 09:42:06;;;;;;;0.80;0.80;;;;;;;;;;8187560;28;20178;-72
2023/05/10 09:46:08;;;;;;;1.42;0.60;;;;;;;;;;8187057;28;20108;-72
2023/05/10 09:50:09;;;;;;;0.85;0.70;;;;;;;;;;8185618;28;20046;-73
2023/05/10 09:54:09;;;;;;;0.73;0.60;;;;;;;;;;8190486;28;21010;-73
2023/05/10 09:58:10;;;;;;;0.68;0.60;;;;;;;;;;8181121;28;20066;-73
2023/05/10 10:02:10;;;;;;;0.63;0.60;;;;;;;;;;8185814;28;20165;-73
2023/05/10 10:06:11;;;;;;;1.13;0.57;;;;;;;;;;8186403;28;20042;-73
2023/05/10 10:10:12;;;;;;;3.20;0.63;;;;;;;;;;8190865;28;20026;-73
2023/05/10 10:14:12;;;;;;;2.60;0.50;;;;;;;;;;8185184;28;20384;-73
2023/05/10 10:18:13;;;;;;;0.60;0.60;;;;;;;;;;8184768;28;20073;-73
2023/05/10 10:22:14;;;;;;;0.70;0.70;;;;;;;;;;8186273;28;20038;-73
2023/05/10 10:26:15;;;;;;;2.10;0.65;;;;;;;;;;8186458;28;20033;-73
2023/05/10 10:30:34;;;;;;;1.40;0.50;;;;;;;;;;8183607;28;20686;-73
2023/05/10 10:34:34;;;;;;;0.73;0.60;;;;;;;;;;8150197;28;20091;-72
2023/05/10 10:38:58;;;;;;;2.20;0.75;;;;;;;;;;8152981;28;20504;-73
2023/05/10 10:43:18;;;;;;;0.60;0.60;;;;;;;;;;8151928;28;20039;-73
2023/05/10 10:47:24;;;;;;;2.83;0.80;;;;;;;;;;8148720;28;20049;-73
2023/05/10 10:51:28;;;;;;;0.77;0.70;;;;;;;;;;8150746;28;20542;-73
2023/05/10 10:55:29;;;;;;;;;;;;;;;;;;8156103;28;20050;-73
2023/05/10 10:59:29;;;;;;;2.15;1.00;;;;;;;;;;8149644;28;20287;-74
2023/05/10 11:03:30;;;;;;;5.28;0.90;;;;;;;;;;8178568;28;20038;-73
2023/05/10 11:07:30;;;;;;;1.65;0.75;;;;;;;;;;8183668;28;20452;-73
2023/05/10 11:11:31;;;;;;;1.70;0.75;;;;;;;;;;8196528;28;20407;-73
2023/05/10 11:15:38;;;;;;;1.00;0.70;;;;;;;;;;8188585;28;21146;-74
2023/05/10 11:19:58;;;;;;;1.33;0.70;;;;;;;;;;8149964;28;20035;-73
2023/05/10 11:23:59;;;;;;;2.65;0.80;;;;;;;;;;8156305;29;20920;-73
2023/05/10 11:28:02;;;;;;;3.13;0.93;;;;;;;;;;8151439;28;20109;-74
2023/05/10 11:32:07;;;;;;;5.18;0.90;;;;;;;;;;8152103;28;20038;-73
2023/05/10 11:36:10;;;;;;;4.03;1.00;;;;;;;;;;8152739;28;20134;-73
2023/05/10 11:40:11;;;;;;;4.00;0.90;;;;;;;;;;8144268;28;20039;-74
2023/05/10 11:44:11;;;;;;;1.95;1.00;;;;;;;;;;8147542;28;20767;-74
2023/05/10 11:48:11;;;;;;;2.38;0.80;;;;;;;;;;8151422;28;20047;-73
2023/05/10 11:52:12;;;;;;;1.98;0.82;;;;;;;;;;8158069;28;20027;-73
2023/05/10 11:56:12;;;;;;;3.45;0.90;;;;;;;;;;8152497;28;20133;-74
2023/05/10 12:00:13;;;;;;;4.35;1.23;;;;;;;;;;8153259;28;20041;-73
2023/05/10 12:04:13;;;;;;;3.40;0.88;;;;;;;;;;8162231;28;20841;-74
2023/05/10 12:08:20;;;;;;;2.20;1.10;;;;;;;;;;8162781;28;20121;-73
2023/05/10 12:12:20;;;;;;;7.43;1.15;;;;;;;;;;8154756;28;20035;-73
2023/05/10 12:16:24;;;;;;;3.17;0.87;;;;;;;;;;8146679;28;20138;-73
2023/05/10 12:20:27;;;;;;;1.92;1.00;;;;;;;;;;8143673;28;20023;-73
2023/05/10 12:24:27;;;;;;;6.43;1.00;;;;;;;;;;8146567;28;20031;-73
2023/05/10 12:28:29;;;;;;;3.50;1.10;;;;;;;;;;8152803;28;21030;-73
2023/05/10 12:32:43;;;;;;;1.40;0.63;;;;;;;;;;8152364;28;20130;-73
2023/05/10 12:36:43;;;;;;;7.13;1.20;;;;;;;;;;8153019;28;20031;-74
2023/05/10 12:40:44;;;;;;;1.95;0.85;;;;;;;;;;8156403;28;20027;-73
2023/05/10 12:44:44;;;;;;;5.23;0.80;;;;;;;;;;8157146;28;20039;-74
2023/05/10 12:48:45;;;;;;;4.38;0.73;;;;;;;;;;8151982;28;20527;-74
2023/05/10 12:52:45;;;;;;;4.38;1.13;;;;;;;;;;8158046;28;20020;-73
2023/05/10 12:56:45;;;;;;;2.50;0.93;;;;;;;;;;8149837;28;20023;-73
2023/05/10 13:00:45;;;;;;;2.75;0.60;;;;;;;;;;8149964;28;20152;-73
2023/05/10 13:04:46;;;;;;;3.22;1.00;;;;;;;;;;8148805;28;20077;-73
2023/05/10 13:08:47;;;;;;;4.50;0.98;;;;;;;;;;8139209;28;20019;-73
2023/05/10 13:12:47;;;;;;;2.92;0.65;;;;;;;;;;8141217;28;20026;-73
2023/05/10 13:16:47;;;;;;;6.70;0.77;;;;;;;;;;8140458;28;20039;-74
2023/05/10 13:20:49;;;;;;;1.88;0.75;;;;;;;;;;8146418;28;20310;-74
2023/05/10 13:24:49;;;;;;;4.65;0.80;;;;;;;;;;8146852;28;20552;-73
2023/05/10 13:28:51;;;;;;;2.13;0.85;;;;;;;;;;8149373;29;20110;-74
2023/05/10 13:32:51;;;;;;;2.95;0.90;;;;;;;;;;8141157;28;20284;-73
2023/05/10 13:36:52;;;;;;;3.47;0.88;;;;;;;;;;8157027;28;20270;-73
2023/05/10 13:40:52;;;;;;;4.65;0.70;;;;;;;;;;8149123;28;20035;-74
2023/05/10 13:44:53;;;;;;;6.28;0.93;;;;;;;;;;8157640;28;20035;-74
2023/05/10 13:48:53;;;;;;;3.67;0.80;;;;;;;;;;8189412;28;20492;-73
2023/05/10 13:52:53;;;;;;;2.65;0.80;;;;;;;;;;8184406;28;20026;-73
2023/05/10 13:56:54;;;;;;;2.67;0.80;;;;;;;;;;8182331;28;20022;-73
2023/05/10 14:00:55;;;;;;;1.77;0.73;;;;;;;;;;8179914;28;20051;-73
2023/05/10 14:04:55;;;;;;;2.08;0.95;;;;;;;;;;8154401;29;20042;-73
2023/05/10 14:08:56;;;;;;;2.72;0.70;;;;;;;;;;8156618;28;20023;-73
2023/05/10 14:12:56;;;;;;;3.78;0.90;;;;;;;;;;8154468;29;20101;-73
2023/05/10 14:16:56;;;;;;;0.73;0.70;;;;;;;;;;8153637;28;20039;-74
2023/05/10 14:20:56;;;;;;;1.58;0.70;;;;;;;;;;8162934;28;20030;-74
2023/05/10 14:24:57;;;;;;;2.27;0.70;;;;;;;;;;8163792;28;20749;-74
2023/05/10 14:28:58;;;;;;;3.85;0.90;;;;;;;;;;8164807;28;20477;-73
2023/05/10 14:33:00;;;;;;;1.85;0.80;;;;;;;;;;8160933;28;20035;-73
2023/05/10 14:37:01;;;;;;;2.10;0.80;;;;;;;;;;8153177;28;20126;-73
2023/05/10 14:41:01;;;;;;;3.93;0.70;;;;;;;;;;8145165;28;20117;-73
2023/05/10 14:45:02;;;;;;;2.17;0.80;;;;;;;;;;8151036;29;20287;-74
2023/05/10 14:49:02;;;;;;;1.33;0.70;;;;;;;;;;8151214;28;20388;-73
2023/05/10 14:53:02;;;;;;;3.20;0.75;;;;;;;;;;8150968;28;20556;-74
2023/05/10 14:57:02;;;;;;;4.20;0.97;;;;;;;;;;8154161;28;20043;-74
2023/05/10 15:01:03;;;;;;;1.27;0.57;;;;;;;;;;8152983;28;20031;-74
2023/05/10 15:05:03;;;;;;;0.80;0.60;;;;;;;;;;8164831;28;20106;-74
2023/05/10 15:09:03;;;;;;;3.70;0.80;;;;;;;;;;8152419;28;20293;-74
2023/05/10 15:13:04;;;;;;;1.77;1.15;;;;;;;;;;8156447;28;20023;-75
2023/05/10 15:17:06;;;;;;;3.28;1.00;;;;;;;;;;8148375;28;20034;-74
2023/05/10 15:21:06;;;;;;;1.77;0.73;;;;;;;;;;8152727;29;20023;-73
2023/05/10 15:25:06;;;;;;;1.57;0.70;;;;;;;;;;8155626;28;20033;-73
2023/05/10 15:29:07;;;;;;;1.15;0.77;;;;;;;;;;8155746;29;20090;-73
2023/05/10 15:33:08;;;;;;;1.90;0.70;;;;;;;;;;8176989;28;20034;-73
2023/05/10 15:37:08;;;;;;;2.22;0.73;;;;;;;;;;8190384;28;20019;-73
2023/05/10 15:41:08;;;;;;;1.02;0.70;;;;;;;;;;8182907;28;20109;-74
2023/05/10 15:45:09;;;;;;;1.42;0.70;;;;;;;;;;8195955;28;20050;-74
2023/05/10 15:49:09;;;;;;;3.00;0.70;;;;;;;;;;8149527;28;20035;-73
2023/05/10 15:53:09;;;;;;;1.48;0.50;;;;;;;;;;8148868;28;20027;-73
2023/05/10 15:57:10;;;;;;;3.08;0.70;;;;;;;;;;8149825;29;20943;-74
2023/05/10 16:01:13;;;;;;;4.70;0.80;;;;;;;;;;8149660;28;20047;-74
2023/05/10 16:05:13;;;;;;;2.58;0.77;;;;;;;;;;8150915;28;20019;-73
2023/05/10 16:09:14;;;;;;;1.58;0.57;;;;;;;;;;8163869;28;20046;-72
2023/05/10 16:13:15;;;;;;;1.23;0.80;;;;;;;;;;8151020;28;20035;-73
2023/05/10 16:17:16;;;;;;;5.95;0.80;;;;;;;;;;8149322;28;20031;-73
2023/05/10 16:21:16;;;;;;;2.83;0.70;;;;;;;;;;8148269;28;20038;-73
2023/05/10 16:25:16;;;;;;;1.30;0.70;;;;;;;;;;8149521;28;20778;-72
2023/05/10 16:29:16;;;;;;;1.33;1.20;;;;;;;;;;8154239;28;20030;-73
2023/05/10 16:33:16;;;;;;;2.45;0.70;;;;;;;;;;8149581;28;20035;-73
2023/05/10 16:37:17;;;;;;;2.78;0.70;;;;;;;;;;8150326;28;20027;-74
2023/05/10 16:41:17;;;;;;;0.50;0.50;;;;;;;;;;8149259;28;20468;-74
2023/05/10 16:45:17;;;;;;;1.58;0.60;;;;;;;;;;8164306;28;20026;-74
2023/05/10 16:49:17;;;;;;;0.75;0.57;;;;;;;;;;8151186;28;20031;-73
2023/05/10 16:53:18;;;;;;;2.72;0.80;;;;;;;;;;8168882;28;20038;-73
2023/05/10 16:57:18;;;;;;;1.63;0.68;;;;;;;;;;8151364;28;20046;-73
2023/05/10 17:01:18;;;;;;;5.53;0.80;;;;;;;;;;8141417;28;20844;-73
2023/05/10 17:05:18;;;;;;;2.27;0.83;;;;;;;;;;8163000;28;20027;-74
2023/05/10 17:09:19;;;;;;;2.13;0.63;;;;;;;;;;8149569;28;20031;-73
2023/05/10 17:13:19;;;;;;;0.95;0.70;;;;;;;;;;8148977;28;20279;-73
2023/05/10 17:17:19;;;;;;;0.90;0.70;;;;;;;;;;8147758;28;20034;-73
2023/05/10 17:21:20;;;;;;;0.60;0.60;;;;;;;;;;8147826;28;20046;-73
2023/05/10 17:25:20;;;;;;;1.55;0.60;;;;;;;;;;8146867;28;20034;-75
2023/05/10 17:29:20;;;;;;;1.20;0.70;;;;;;;;;;8154319;28;20026;-76
2023/05/10 17:33:21;;;;;;;1.20;0.70;;;;;;;;;;8158215;28;20500;-76
2023/05/10 17:37:21;;;;;;;2.30;0.70;;;;;;;;;;8161322;28;20027;-76
2023/05/10 17:41:22;;;;;;;0.60;0.60;;;;;;;;;;8158386;28;20040;-75
2023/05/10 17:45:22;;;;;;;1.60;0.60;;;;;;;;;;8155640;28;20142;-75
2023/05/10 17:49:23;;;;;;;0.80;0.80;;;;;;;;;;8151299;28;20072;-76
2023/05/10 17:53:23;;;;;;;1.95;0.80;;;;;;;;;;8154013;28;20133;-79
2023/05/10 17:57:24;;;;;;;1.15;0.63;;;;;;;;;;8151791;28;20063;-76
2023/05/10 18:01:24;;;;;;;0.80;0.60;;;;;;;;;;8153567;28;20039;-79
2023/05/10 18:05:24;;;;;;;1.93;0.87;;;;;;;;;;8152356;28;20792;-77
2023/05/10 18:09:25;;;;;;;1.20;0.50;;;;;;;;;;8152413;28;20330;-80
2023/05/10 18:13:25;;;;;;;2.35;0.60;;;;;;;;;;8151474;28;20042;-80
2023/05/10 18:17:25;;;;;;;0.88;0.60;;;;;;;;;;8155375;28;20027;-74
2023/05/10 18:21:25;;;;;;;3.63;0.63;;;;;;;;;;8155378;28;20027;-75
2023/05/10 18:25:25;;;;;;;1.35;0.60;;;;;;;;;;8155793;28;20027;-75
2023/05/10 18:29:25;;;;;;;4.25;0.73;;;;;;;;;;8153438;28;20027;-72
2023/05/10 18:33:26;;;;;;;0.80;0.60;;;;;;;;;;8182742;28;20101;-72
2023/05/10 18:37:26;;;;;;;2.85;0.60;;;;;;;;;;8196122;28;20428;-73
2023/05/10 18:41:26;;;;;;;2.35;0.70;;;;;;;;;;8187764;28;20461;-72
2023/05/10 18:45:27;;;;;;;1.67;0.80;;;;;;;;;;8178811;28;20157;-73
2023/05/10 18:49:28;;;;;;;2.05;0.95;;;;;;;;;;8151984;28;20034;-73
2023/05/10 18:53:28;;;;;;;1.52;0.68;;;;;;;;;;8152147;28;20823;-72
2023/05/10 18:57:28;;;;;;;1.35;0.70;;;;;;;;;;8152466;28;20038;-73
2023/05/10 19:01:28;;;;;;;1.08;0.60;;;;;;;;;;8151768;28;20529;-72
2023/05/10 19:05:30;;;;;;;1.40;0.70;;;;;;;;;;8160145;28;20030;-73
2023/05/10 19:09:30;;;;;;;1.52;0.80;;;;;;;;;;8157256;28;20032;-74
2023/05/10 19:13:30;;;;;;;1.63;0.70;;;;;;;;;;8151811;28;20027;-73
2023/05/10 19:17:31;;;;;;;2.67;0.73;;;;;;;;;;8151978;28;20166;-73
2023/05/10 19:21:31;;;;;;;1.63;0.50;;;;;;;;;;8148814;28;20595;-73
2023/05/10 19:25:32;;;;;;;1.33;0.60;;;;;;;;;;8147967;29;20688;-73
2023/05/10 19:29:32;;;;;;;0.45;0.40;;;;;;;;;;8149288;29;20105;-72
2023/05/10 19:33:32;;;;;;;0.98;0.50;;;;;;;;;;8150985;28;20038;-73
2023/05/10 19:37:32;;;;;;;0.43;0.40;;;;;;;;;;8155776;28;20101;-74
2023/05/10 19:41:32;;;;;;;1.10;0.60;;;;;;;;;;8151378;28;20148;-73
2023/05/10 19:45:33;;;;;;;1.20;0.50;;;;;;;;;;8147775;28;20043;-72
2023/05/10 19:49:34;;;;;;;0.45;0.40;;;;;;;;;;8153105;28;20793;-72
2023/05/10 19:53:35;;;;;;;1.48;0.50;;;;;;;;;;8148812;28;20038;-71
2023/05/10 19:57:35;;;;;;;0.80;0.60;;;;;;;;;;8153451;28;20876;-72
2023/05/10 20:01:35;;;;;;;2.38;0.52;;;;;;;;;;8160115;28;20031;-71
2023/05/10 20:05:36;;;;;;;0.57;0.50;;;;;;;;;;8149854;28;20823;-71
2023/05/10 20:09:36;;;;;;;2.42;0.70;;;;;;;;;;8181800;28;20121;-71
2023/05/10 20:13:36;;;;;;;3.13;0.60;;;;;;;;;;8182638;28;20033;-72
2023/05/10 20:17:36;;;;;;;1.88;0.60;;;;;;;;;;8166315;28;20031;-71
2023/05/10 20:21:37;;;;;;;1.88;0.60;;;;;;;;;;8155508;28;20440;-71
2023/05/10 20:25:37;;;;;;;1.87;1.00;;;;;;;;;;8153111;28;20027;-71
2023/05/10 20:29:38;;;;;;;0.97;0.70;;;;;;;;;;8161051;28;20334;-71
2023/05/10 20:33:38;;;;;;;0.68;0.60;;;;;;;;;;8155980;28;20337;-71
2023/05/10 20:37:38;;;;;;;4.03;0.80;;;;;;;;;;8155142;28;20186;-71
2023/05/10 20:41:38;;;;;;;0.70;0.70;;;;;;;;;;8154364;28;20035;-72
2023/05/10 20:45:38;;;;;;;1.58;0.70;;;;;;;;;;8154549;28;20159;-71
2023/05/10 20:49:39;;;;;;;2.15;0.60;;;;;;;;;;8169558;28;20016;-72
2023/05/10 20:53:39;;;;;;;1.95;0.80;;;;;;;;;;8153575;28;20452;-71
2023/05/10 20:57:39;;;;;;;2.83;0.65;;;;;;;;;;8158691;28;20063;-72
2023/05/10 21:01:40;;;;;;;0.73;0.60;;;;;;;;;;8156699;28;20153;-72
2023/05/10 21:05:40;;;;;;;1.65;0.60;;;;;;;;;;8152442;28;20011;-72
2023/05/10 21:09:40;;;;;;;0.80;0.60;;;;;;;;;;8159805;28;20047;-72
2023/05/10 21:13:41;;;;;;;1.45;0.73;;;;;;;;;;8163617;28;20023;-72
2023/05/10 21:17:41;;;;;;;2.90;0.70;;;;;;;;;;8159631;28;20035;-72
2023/05/10 21:21:41;;;;;;;0.75;0.73;;;;;;;;;;8161334;28;20023;-72
2023/05/10 21:25:41;;;;;;;0.70;0.70;;;;;;;;;;8156231;28;20027;-72
2023/05/10 21:29:41;;;;;;;0.63;0.60;;;;;;;;;;8156077;28;20027;-71
2023/05/10 21:33:42;;;;;;;2.05;0.80;;;;;;;;;;8164520;28;20743;-72
2023/05/10 21:37:42;;;;;;;1.70;1.45;;;;;;;;;;8167657;28;20023;-72
2023/05/10 21:41:42;;;;;;;7.55;2.65;;;;;;;;;;8160171;28;20039;-71
2023/05/10 21:45:42;;;;;;;5.18;1.13;;;;;;;;;;8165941;28;20035;-72
2023/05/10 21:49:43;;;;;;;1.27;0.80;;;;;;;;;;8159657;28;20543;-72
2023/05/10 21:53:43;;;;;;;2.85;0.88;;;;;;;;;;8159486;28;20024;-72
2023/05/10 21:57:43;;;;;;;0.95;0.90;;;;;;;;;;8157748;28;20035;-71
2023/05/10 22:01:44;;;;;;;2.83;0.93;;;;;;;;;;8157716;28;20551;-71
2023/05/10 22:05:44;;;;;;;1.65;0.68;;;;;;;;;;8159231;28;20277;-72
2023/05/10 22:09:44;;;;;;;2.80;1.13;;;;;;;;;;8168106;28;20587;-71
2023/05/10 22:13:45;;;;;;;0.80;0.80;;;;;;;;;;8157005;28;20649;-71
2023/05/10 22:17:45;;;;;;;1.52;1.10;;;;;;;;;;8155250;28;20032;-72
2023/05/10 22:21:45;;;;;;;1.50;1.10;;;;;;;;;;8156228;28;20031;-71
2023/05/10 22:25:45;;;;;;;1.85;1.02;;;;;;;;;;8166706;28;20708;-71
2023/05/10 22:29:47;;;;;;;1.60;1.02;;;;;;;;;;8165745;28;20035;-72
2023/05/10 22:33:47;;;;;;;1.48;0.90;;;;;;;;;;8167619;28;20039;-71
2023/05/10 22:37:47;;;;;;;1.33;1.00;;;;;;;;;;8162892;28;20019;-71
2023/05/10 22:41:47;;;;;;;2.33;1.20;;;;;;;;;;8159212;28;20023;-71
2023/05/10 22:45:48;;;;;;;1.30;0.70;;;;;;;;;;8157003;28;20035;-72
2023/05/10 22:49:48;;;;;;;0.70;0.70;;;;;;;;;;8155134;29;20023;-71
2023/05/10 22:53:48;;;;;;;0.77;0.77;;;;;;;;;;8156847;28;20027;-71
2023/05/10 22:57:48;;;;;;;3.15;1.30;;;;;;;;;;8160352;28;20027;-71
2023/05/10 23:01:48;;;;;;;3.08;1.13;;;;;;;;;;8155361;28;20117;-71
2023/05/10 23:05:48;;;;;;;2.22;1.05;;;;;;;;;;8162182;28;20405;-70
2023/05/10 23:09:49;;;;;;;0.95;0.80;;;;;;;;;;8155802;29;20086;-71
2023/05/10 23:13:49;;;;;;;3.10;0.70;;;;;;;;;;8155332;28;20039;-71
2023/05/10 23:17:49;;;;;;;0.60;0.60;;;;;;;;;;8162423;28;20027;-72
2023/05/10 23:21:50;;;;;;;0.98;0.70;;;;;;;;;;8158054;28;20019;-71
2023/05/10 23:25:50;;;;;;;1.90;0.77;;;;;;;;;;8153440;29;20062;-71
2023/05/10 23:29:54;;;;;;;2.10;0.70;;;;;;;;;;8161365;28;20038;-71
2023/05/10 23:33:54;;;;;;;1.58;0.90;;;;;;;;;;8163442;28;20271;-71
2023/05/10 23:37:55;;;;;;;0.55;0.55;;;;;;;;;;8157221;28;20027;-71
2023/05/10 23:41:55;;;;;;;0.85;0.70;;;;;;;;;;8155271;28;20468;-71
2023/05/10 23:45:55;;;;;;;2.55;0.80;;;;;;;;;;8159619;28;20702;-71
2023/05/10 23:49:56;;;;;;;0.60;0.60;;;;;;;;;;8154036;28;20023;-71
2023/05/10 23:53:56;;;;;;;1.13;0.60;;;;;;;;;;8160232;28;20015;-71
2023/05/10 23:57:56;;;;;;;1.65;0.70;;;;;;;;;;8157320;28;20110;-71
